sensor_id;sensor_type;location;lat;lon;timestamp;pressure;altitude;pressure_sealevel;temperature;humidity
21594;BME280;10959;51.328;7.322;2023-09-07T00:01:11;99435.41;;;20.75;59.33
21594;BME280;10959;51.328;7.322;2023-09-07T00:03:38;99439.56;;;20.73;59.60
21594;BME280;10959;51.328;7.322;2023-09-07T00:06:06;99443.25;;;20.68;59.39
21594;BME280;10959;51.328;7.322;2023-09-07T00:08:33;99440.81;;;20.67;59.36
21594;BME280;10959;51.328;7.322;2023-09-07T00:11:02;99437.84;;;20.63;59.35
21594;BME280;10959;51.328;7.322;2023-09-07T00:13:30;99434.06;;;20.59;59.56
21594;BME280;10959;51.328;7.322;2023-09-07T00:15:58;99431.41;;;20.54;59.68
21594;BME280;10959;51.328;7.322;2023-09-07T00:18:25;99436.69;;;20.51;59.82
21594;BME280;10959;51.328;7.322;2023-09-07T00:20:52;99427.72;;;20.45;59.73
21594;BME280;10959;51.328;7.322;2023-09-07T00:23:18;99431.38;;;20.41;59.54
21594;BME280;10959;51.328;7.322;2023-09-07T00:25:46;99436.47;;;20.34;59.90
21594;BME280;10959;51.328;7.322;2023-09-07T00:28:12;99435.19;;;20.26;60.08
21594;BME280;10959;51.328;7.322;2023-09-07T00:30:40;99433.53;;;20.25;60.19
21594;BME280;10959;51.328;7.322;2023-09-07T00:33:07;99431.47;;;20.17;60.36
21594;BME280;10959;51.328;7.322;2023-09-07T00:35:34;99434.81;;;20.14;60.29
21594;BME280;10959;51.328;7.322;2023-09-07T00:38:00;99429.63;;;20.12;60.07
21594;BME280;10959;51.328;7.322;2023-09-07T00:40:27;99428.00;;;20.11;60.19
21594;BME280;10959;51.328;7.322;2023-09-07T00:42:54;99424.16;;;20.12;60.37
21594;BME280;10959;51.328;7.322;2023-09-07T00:45:21;99427.19;;;20.11;59.95
21594;BME280;10959;51.328;7.322;2023-09-07T00:47:49;99423.94;;;20.09;59.84
21594;BME280;10959;51.328;7.322;2023-09-07T00:50:15;99420.13;;;20.05;59.83
21594;BME280;10959;51.328;7.322;2023-09-07T00:52:42;99427.88;;;20.03;60.25
21594;BME280;10959;51.328;7.322;2023-09-07T00:55:09;99427.88;;;20.03;59.86
21594;BME280;10959;51.328;7.322;2023-09-07T00:57:36;99422.16;;;19.99;59.95
21594;BME280;10959;51.328;7.322;2023-09-07T01:00:06;99426.31;;;19.97;60.00
21594;BME280;10959;51.328;7.322;2023-09-07T01:02:33;99421.41;;;19.94;60.00
21594;BME280;10959;51.328;7.322;2023-09-07T01:05:01;99422.63;;;19.88;59.76
21594;BME280;10959;51.328;7.322;2023-09-07T01:07:32;99423.72;;;19.87;59.98
21594;BME280;10959;51.328;7.322;2023-09-07T01:10:00;99418.00;;;19.83;60.00
21594;BME280;10959;51.328;7.322;2023-09-07T01:12:28;99417.50;;;19.81;59.98
21594;BME280;10959;51.328;7.322;2023-09-07T01:14:55;99418.91;;;19.79;59.89
21594;BME280;10959;51.328;7.322;2023-09-07T01:17:24;99406.06;;;19.74;60.08
21594;BME280;10959;51.328;7.322;2023-09-07T01:19:52;99401.50;;;19.69;59.81
21594;BME280;10959;51.328;7.322;2023-09-07T01:22:21;99407.56;;;19.66;60.00
21594;BME280;10959;51.328;7.322;2023-09-07T01:24:49;99399.09;;;19.63;60.21
21594;BME280;10959;51.328;7.322;2023-09-07T01:27:16;99396.66;;;19.61;60.26
21594;BME280;10959;51.328;7.322;2023-09-07T01:29:43;99402.44;;;19.60;60.25
21594;BME280;10959;51.328;7.322;2023-09-07T01:32:09;99389.59;;;19.55;60.42
21594;BME280;10959;51.328;7.322;2023-09-07T01:34:36;99392.94;;;19.52;60.37
21594;BME280;10959;51.328;7.322;2023-09-07T01:37:03;99388.03;;;19.49;60.47
21594;BME280;10959;51.328;7.322;2023-09-07T01:39:31;99383.97;;;19.47;60.52
21594;BME280;10959;51.328;7.322;2023-09-07T01:41:58;99391.69;;;19.45;60.75
21594;BME280;10959;51.328;7.322;2023-09-07T01:44:24;99389.22;;;19.43;60.48
21594;BME280;10959;51.328;7.322;2023-09-07T01:46:52;99393.38;;;19.41;60.80
21594;BME280;10959;51.328;7.322;2023-09-07T01:49:18;99387.63;;;19.37;60.67
21594;BME280;10959;51.328;7.322;2023-09-07T01:51:45;99396.69;;;19.38;60.79
21594;BME280;10959;51.328;7.322;2023-09-07T01:54:11;99393.44;;;19.36;60.56
21594;BME280;10959;51.328;7.322;2023-09-07T01:56:39;99387.44;;;19.34;60.75
21594;BME280;10959;51.328;7.322;2023-09-07T01:59:06;99388.31;;;19.29;60.57
21594;BME280;10959;51.328;7.322;2023-09-07T02:01:33;99396.31;;;19.26;60.58
21594;BME280;10959;51.328;7.322;2023-09-07T02:04:02;99388.97;;;19.21;60.61
21594;BME280;10959;51.328;7.322;2023-09-07T02:06:28;99386.81;;;19.18;60.79
21594;BME280;10959;51.328;7.322;2023-09-07T02:08:55;99392.91;;;19.15;60.94
21594;BME280;10959;51.328;7.322;2023-09-07T02:11:22;99382.50;;;19.12;60.78
21594;BME280;10959;51.328;7.322;2023-09-07T02:13:50;99390.19;;;19.10;60.95
21594;BME280;10959;51.328;7.322;2023-09-07T02:16:16;99384.50;;;19.06;61.08
21594;BME280;10959;51.328;7.322;2023-09-07T02:18:44;99387.53;;;19.05;60.99
21594;BME280;10959;51.328;7.322;2023-09-07T02:21:12;99388.94;;;19.02;60.94
21594;BME280;10959;51.328;7.322;2023-09-07T02:23:39;99387.59;;;19.00;61.02
21594;BME280;10959;51.328;7.322;2023-09-07T02:26:05;99387.06;;;18.98;60.99
21594;BME280;10959;51.328;7.322;2023-09-07T02:28:32;99385.72;;;18.95;61.11
21594;BME280;10959;51.328;7.322;2023-09-07T02:31:04;99384.69;;;18.91;60.94
21594;BME280;10959;51.328;7.322;2023-09-07T02:33:31;99386.63;;;18.91;60.99
21594;BME280;10959;51.328;7.322;2023-09-07T02:35:57;99381.41;;;18.89;61.20
21594;BME280;10959;51.328;7.322;2023-09-07T02:38:24;99383.91;;;18.86;61.08
21594;BME280;10959;51.328;7.322;2023-09-07T02:40:50;99376.28;;;18.83;61.07
21594;BME280;10959;51.328;7.322;2023-09-07T02:43:17;99374.94;;;18.80;61.14
21594;BME280;10959;51.328;7.322;2023-09-07T02:45:44;99376.06;;;18.79;61.18
21594;BME280;10959;51.328;7.322;2023-09-07T02:48:11;99382.94;;;18.77;61.26
21594;BME280;10959;51.328;7.322;2023-09-07T02:50:38;99385.66;;;18.77;61.16
21594;BME280;10959;51.328;7.322;2023-09-07T02:53:05;99378.84;;;18.74;61.37
21594;BME280;10959;51.328;7.322;2023-09-07T02:55:31;99380.78;;;18.74;61.49
21594;BME280;10959;51.328;7.322;2023-09-07T02:57:58;99386.03;;;18.70;61.48
21594;BME280;10959;51.328;7.322;2023-09-07T03:00:25;99384.16;;;18.66;61.44
21594;BME280;10959;51.328;7.322;2023-09-07T03:02:51;99382.00;;;18.62;61.48
21594;BME280;10959;51.328;7.322;2023-09-07T03:05:19;99378.44;;;18.62;61.38
21594;BME280;10959;51.328;7.322;2023-09-07T03:07:47;99383.69;;;18.58;61.33
21594;BME280;10959;51.328;7.322;2023-09-07T03:10:13;99384.56;;;18.54;61.55
21594;BME280;10959;51.328;7.322;2023-09-07T03:12:40;99377.19;;;18.54;61.38
21594;BME280;10959;51.328;7.322;2023-09-07T03:15:07;99373.09;;;18.52;61.44
21594;BME280;10959;51.328;7.322;2023-09-07T03:17:33;99379.94;;;18.49;61.49
21594;BME280;10959;51.328;7.322;2023-09-07T03:20:00;99379.41;;;18.47;61.38
21594;BME280;10959;51.328;7.322;2023-09-07T03:22:32;99373.16;;;18.42;61.42
21594;BME280;10959;51.328;7.322;2023-09-07T03:24:58;99372.34;;;18.41;61.48
21594;BME280;10959;51.328;7.322;2023-09-07T03:27:25;99371.81;;;18.39;61.50
21594;BME280;10959;51.328;7.322;2023-09-07T03:29:51;99369.66;;;18.36;61.43
21594;BME280;10959;51.328;7.322;2023-09-07T03:32:17;99373.50;;;18.35;61.51
21594;BME280;10959;51.328;7.322;2023-09-07T03:34:44;99363.13;;;18.32;61.53
21594;BME280;10959;51.328;7.322;2023-09-07T03:37:10;99376.28;;;18.30;61.66
21594;BME280;10959;51.328;7.322;2023-09-07T03:39:38;99366.44;;;18.29;61.86
21594;BME280;10959;51.328;7.322;2023-09-07T03:42:05;99368.09;;;18.30;61.67
21594;BME280;10959;51.328;7.322;2023-09-07T03:44:31;99359.63;;;18.27;61.66
21594;BME280;10959;51.328;7.322;2023-09-07T03:46:57;99365.94;;;18.22;61.59
21594;BME280;10959;51.328;7.322;2023-09-07T03:49:24;99368.69;;;18.22;61.70
21594;BME280;10959;51.328;7.322;2023-09-07T03:51:50;99372.56;;;18.21;61.78
21594;BME280;10959;51.328;7.322;2023-09-07T03:54:17;99355.38;;;18.16;61.91
21594;BME280;10959;51.328;7.322;2023-09-07T03:56:45;99370.41;;;18.13;61.87
21594;BME280;10959;51.328;7.322;2023-09-07T03:59:11;99360.88;;;18.10;62.06
21594;BME280;10959;51.328;7.322;2023-09-07T04:01:38;99372.63;;;18.11;62.04
21594;BME280;10959;51.328;7.322;2023-09-07T04:04:04;99371.00;;;18.10;62.13
21594;BME280;10959;51.328;7.322;2023-09-07T04:06:31;99366.66;;;18.09;62.05
21594;BME280;10959;51.328;7.322;2023-09-07T04:08:58;99376.47;;;18.10;62.08
21594;BME280;10959;51.328;7.322;2023-09-07T04:11:24;99374.34;;;18.07;61.94
21594;BME280;10959;51.328;7.322;2023-09-07T04:13:52;99377.06;;;18.07;61.90
21594;BME280;10959;51.328;7.322;2023-09-07T04:16:18;99379.25;;;18.05;62.18
21594;BME280;10959;51.328;7.322;2023-09-07T04:18:45;99375.19;;;18.02;62.83
21594;BME280;10959;51.328;7.322;2023-09-07T04:21:11;99382.63;;;17.97;63.25
21594;BME280;10959;51.328;7.322;2023-09-07T04:23:38;99387.03;;;17.93;63.17
21594;BME280;10959;51.328;7.322;2023-09-07T04:26:06;99384.28;;;17.93;63.22
21594;BME280;10959;51.328;7.322;2023-09-07T04:28:33;99387.03;;;17.93;63.15
21594;BME280;10959;51.328;7.322;2023-09-07T04:31:01;99388.66;;;17.94;62.79
21594;BME280;10959;51.328;7.322;2023-09-07T04:33:29;99394.41;;;17.92;63.13
21594;BME280;10959;51.328;7.322;2023-09-07T04:35:56;99389.25;;;17.91;63.07
21594;BME280;10959;51.328;7.322;2023-09-07T04:38:22;99397.72;;;17.89;62.94
21594;BME280;10959;51.328;7.322;2023-09-07T04:40:49;99391.44;;;17.89;63.20
21594;BME280;10959;51.328;7.322;2023-09-07T04:43:15;99398.00;;;17.88;63.16
21594;BME280;10959;51.328;7.322;2023-09-07T04:45:45;99392.03;;;17.86;63.12
21594;BME280;10959;51.328;7.322;2023-09-07T04:48:13;99390.38;;;17.85;62.97
21594;BME280;10959;51.328;7.322;2023-09-07T04:50:40;99386.56;;;17.86;63.12
21594;BME280;10959;51.328;7.322;2023-09-07T04:53:06;99394.75;;;17.86;63.05
21594;BME280;10959;51.328;7.322;2023-09-07T04:55:37;99398.63;;;17.80;63.19
21594;BME280;10959;51.328;7.322;2023-09-07T04:58:03;99398.63;;;17.80;63.19
21594;BME280;10959;51.328;7.322;2023-09-07T05:00:30;99393.72;;;17.77;63.28
21594;BME280;10959;51.328;7.322;2023-09-07T05:02:57;99395.34;;;17.78;63.36
21594;BME280;10959;51.328;7.322;2023-09-07T05:05:24;99392.91;;;17.76;63.21
21594;BME280;10959;51.328;7.322;2023-09-07T05:07:51;99394.81;;;17.76;63.39
21594;BME280;10959;51.328;7.322;2023-09-07T05:10:19;99395.91;;;17.75;63.49
21594;BME280;10959;51.328;7.322;2023-09-07T05:12:45;99392.09;;;17.76;63.44
21594;BME280;10959;51.328;7.322;2023-09-07T05:15:12;99393.22;;;17.70;63.79
21594;BME280;10959;51.328;7.322;2023-09-07T05:17:38;99391.31;;;17.70;63.94
21594;BME280;10959;51.328;7.322;2023-09-07T05:20:06;99398.13;;;17.73;63.85
21594;BME280;10959;51.328;7.322;2023-09-07T05:22:35;99405.25;;;17.74;64.15
21594;BME280;10959;51.328;7.322;2023-09-07T05:25:05;99390.44;;;17.75;64.28
21594;BME280;10959;51.328;7.322;2023-09-07T05:27:31;99402.97;;;17.81;64.32
21594;BME280;10959;51.328;7.322;2023-09-07T05:29:58;99404.06;;;17.85;64.03
21594;BME280;10959;51.328;7.322;2023-09-07T05:32:24;99402.41;;;17.89;64.32
21594;BME280;10959;51.328;7.322;2023-09-07T05:34:51;99406.72;;;17.95;64.04
21594;BME280;10959;51.328;7.322;2023-09-07T05:37:18;99398.47;;;18.00;63.73
21594;BME280;10959;51.328;7.322;2023-09-07T05:39:56;99403.03;;;18.09;63.84
21594;BME280;10959;51.328;7.322;2023-09-07T05:42:23;99400.50;;;18.18;63.54
21594;BME280;10959;51.328;7.322;2023-09-07T05:44:51;99401.50;;;18.27;63.39
21594;BME280;10959;51.328;7.322;2023-09-07T05:47:17;99412.06;;;18.39;63.09
21594;BME280;10959;51.328;7.322;2023-09-07T05:49:44;99413.34;;;18.46;62.74
21594;BME280;10959;51.328;7.322;2023-09-07T05:52:10;99415.56;;;18.44;62.80
21594;BME280;10959;51.328;7.322;2023-09-07T05:54:37;99408.97;;;18.50;62.82
21594;BME280;10959;51.328;7.322;2023-09-07T05:57:04;99413.22;;;18.61;62.67
21594;BME280;10959;51.328;7.322;2023-09-07T05:59:31;99417.53;;;18.73;62.56
21594;BME280;10959;51.328;7.322;2023-09-07T06:01:58;99413.53;;;18.84;62.35
21594;BME280;10959;51.328;7.322;2023-09-07T06:04:24;99417.28;;;18.93;62.29
21594;BME280;10959;51.328;7.322;2023-09-07T06:06:50;99412.78;;;19.02;61.98
21594;BME280;10959;51.328;7.322;2023-09-07T06:09:17;99414.59;;;19.11;61.88
21594;BME280;10959;51.328;7.322;2023-09-07T06:11:43;99408.75;;;19.18;61.92
21594;BME280;10959;51.328;7.322;2023-09-07T06:14:11;99416.84;;;19.28;61.63
21594;BME280;10959;51.328;7.322;2023-09-07T06:16:38;99414.28;;;19.37;61.45
21594;BME280;10959;51.328;7.322;2023-09-07T06:19:05;99404.34;;;19.41;61.47
21594;BME280;10959;51.328;7.322;2023-09-07T06:21:32;99410.59;;;19.46;61.07
21594;BME280;10959;51.328;7.322;2023-09-07T06:23:59;99417.03;;;19.55;61.44
21594;BME280;10959;51.328;7.322;2023-09-07T06:26:25;99412.50;;;19.64;61.75
21594;BME280;10959;51.328;7.322;2023-09-07T06:28:52;99416.75;;;19.76;61.24
21594;BME280;10959;51.328;7.322;2023-09-07T06:31:20;99407.56;;;19.85;61.53
21594;BME280;10959;51.328;7.322;2023-09-07T06:33:46;99412.00;;;20.00;61.37
21594;BME280;10959;51.328;7.322;2023-09-07T06:36:13;99413.34;;;20.16;61.25
21594;BME280;10959;51.328;7.322;2023-09-07T06:38:39;99417.22;;;20.34;61.57
21594;BME280;10959;51.328;7.322;2023-09-07T06:41:05;99419.16;;;20.47;60.67
21594;BME280;10959;51.328;7.322;2023-09-07T06:43:33;99416.16;;;20.62;60.72
21594;BME280;10959;51.328;7.322;2023-09-07T06:46:03;99417.78;;;20.76;60.23
21594;BME280;10959;51.328;7.322;2023-09-07T06:48:31;99419.63;;;20.95;59.73
21594;BME280;10959;51.328;7.322;2023-09-07T06:51:01;99422.09;;;21.10;59.72
21594;BME280;10959;51.328;7.322;2023-09-07T06:53:28;99423.09;;;21.27;59.86
21594;BME280;10959;51.328;7.322;2023-09-07T06:55:57;99422.50;;;21.44;59.20
21594;BME280;10959;51.328;7.322;2023-09-07T06:58:23;99421.03;;;21.60;59.48
21594;BME280;10959;51.328;7.322;2023-09-07T07:00:50;99431.56;;;21.80;59.08
21594;BME280;10959;51.328;7.322;2023-09-07T07:03:16;99426.75;;;22.00;59.26
21594;BME280;10959;51.328;7.322;2023-09-07T07:05:44;99432.59;;;22.20;59.60
21594;BME280;10959;51.328;7.322;2023-09-07T07:08:11;99430.75;;;22.38;59.18
21594;BME280;10959;51.328;7.322;2023-09-07T07:10:37;99432.97;;;22.58;58.47
21594;BME280;10959;51.328;7.322;2023-09-07T07:13:04;99429.72;;;22.78;58.37
21594;BME280;10959;51.328;7.322;2023-09-07T07:15:30;99431.44;;;22.97;56.88
21594;BME280;10959;51.328;7.322;2023-09-07T07:17:57;99440.56;;;23.14;56.75
21594;BME280;10959;51.328;7.322;2023-09-07T07:20:23;99444.84;;;23.29;56.14
21594;BME280;10959;51.328;7.322;2023-09-07T07:22:51;99445.72;;;23.46;56.54
21594;BME280;10959;51.328;7.322;2023-09-07T07:25:17;99436.63;;;23.63;56.39
21594;BME280;10959;51.328;7.322;2023-09-07T07:27:44;99445.91;;;23.84;56.30
21594;BME280;10959;51.328;7.322;2023-09-07T07:30:11;99445.78;;;24.07;54.98
21594;BME280;10959;51.328;7.322;2023-09-07T07:32:37;99442.06;;;24.20;53.92
21594;BME280;10959;51.328;7.322;2023-09-07T07:35:04;99435.03;;;24.39;55.65
21594;BME280;10959;51.328;7.322;2023-09-07T07:37:32;99440.88;;;24.55;53.71
21594;BME280;10959;51.328;7.322;2023-09-07T07:39:59;99440.03;;;24.72;53.78
21594;BME280;10959;51.328;7.322;2023-09-07T07:42:26;99444.91;;;24.83;52.75
21594;BME280;10959;51.328;7.322;2023-09-07T07:44:52;99434.63;;;24.92;50.70
21594;BME280;10959;51.328;7.322;2023-09-07T07:47:19;99433.56;;;25.05;49.37
21594;BME280;10959;51.328;7.322;2023-09-07T07:49:45;99434.34;;;25.15;49.99
21594;BME280;10959;51.328;7.322;2023-09-07T07:52:12;99428.78;;;25.23;48.91
21594;BME280;10959;51.328;7.322;2023-09-07T07:54:38;99432.56;;;25.39;48.63
21594;BME280;10959;51.328;7.322;2023-09-07T07:57:06;99426.78;;;25.61;47.46
21594;BME280;10959;51.328;7.322;2023-09-07T07:59:33;99427.84;;;25.69;47.58
21594;BME280;10959;51.328;7.322;2023-09-07T08:02:00;99426.94;;;25.86;48.48
21594;BME280;10959;51.328;7.322;2023-09-07T08:04:26;99435.38;;;26.10;48.38
21594;BME280;10959;51.328;7.322;2023-09-07T08:06:53;99431.50;;;26.23;45.88
21594;BME280;10959;51.328;7.322;2023-09-07T08:09:23;99423.13;;;26.32;46.31
21594;BME280;10959;51.328;7.322;2023-09-07T08:11:50;99439.34;;;26.54;47.36
21594;BME280;10959;51.328;7.322;2023-09-07T08:14:18;99440.75;;;26.60;43.54
21594;BME280;10959;51.328;7.322;2023-09-07T08:16:44;99439.72;;;26.52;45.19
21594;BME280;10959;51.328;7.322;2023-09-07T08:19:11;99435.94;;;26.69;47.10
21594;BME280;10959;51.328;7.322;2023-09-07T08:21:37;99429.31;;;26.94;46.69
21594;BME280;10959;51.328;7.322;2023-09-07T08:24:04;99431.97;;;27.15;45.61
21594;BME280;10959;51.328;7.322;2023-09-07T08:26:31;99427.38;;;27.31;45.78
21594;BME280;10959;51.328;7.322;2023-09-07T08:28:57;99434.31;;;27.37;43.65
21594;BME280;10959;51.328;7.322;2023-09-07T08:31:25;99424.78;;;27.38;44.85
21594;BME280;10959;51.328;7.322;2023-09-07T08:33:53;99431.41;;;27.58;45.01
21594;BME280;10959;51.328;7.322;2023-09-07T08:36:20;99427.00;;;27.69;44.73
21594;BME280;10959;51.328;7.322;2023-09-07T08:38:47;99427.50;;;27.47;42.88
21594;BME280;10959;51.328;7.322;2023-09-07T08:41:14;99433.75;;;27.56;44.91
21594;BME280;10959;51.328;7.322;2023-09-07T08:43:45;99428.84;;;27.77;42.83
21594;BME280;10959;51.328;7.322;2023-09-07T08:46:14;99424.72;;;27.99;44.43
21594;BME280;10959;51.328;7.322;2023-09-07T08:48:42;99426.16;;;28.20;45.35
21594;BME280;10959;51.328;7.322;2023-09-07T08:51:11;99424.56;;;28.19;44.05
21594;BME280;10959;51.328;7.322;2023-09-07T08:53:39;99417.31;;;28.30;43.93
21594;BME280;10959;51.328;7.322;2023-09-07T08:56:06;99425.97;;;28.41;44.21
21594;BME280;10959;51.328;7.322;2023-09-07T08:58:35;99420.94;;;28.47;42.92
21594;BME280;10959;51.328;7.322;2023-09-07T09:01:02;99416.41;;;28.26;40.90
21594;BME280;10959;51.328;7.322;2023-09-07T09:03:28;99419.00;;;28.19;42.60
21594;BME280;10959;51.328;7.322;2023-09-07T09:05:57;99424.25;;;28.37;42.95
21594;BME280;10959;51.328;7.322;2023-09-07T09:08:23;99422.59;;;28.63;43.30
21594;BME280;10959;51.328;7.322;2023-09-07T09:10:58;99423.47;;;28.79;41.79
21594;BME280;10959;51.328;7.322;2023-09-07T09:13:27;99426.44;;;29.02;41.34
21594;BME280;10959;51.328;7.322;2023-09-07T09:15:54;99420.25;;;29.24;42.80
21594;BME280;10959;51.328;7.322;2023-09-07T09:18:20;99423.81;;;29.40;40.80
21594;BME280;10959;51.328;7.322;2023-09-07T09:20:47;99423.97;;;29.48;40.33
21594;BME280;10959;51.328;7.322;2023-09-07T09:23:15;99420.34;;;29.63;42.01
21594;BME280;10959;51.328;7.322;2023-09-07T09:25:42;99425.50;;;29.80;41.20
21594;BME280;10959;51.328;7.322;2023-09-07T09:28:09;99421.03;;;29.91;38.83
21594;BME280;10959;51.328;7.322;2023-09-07T09:30:36;99422.28;;;29.78;40.32
21594;BME280;10959;51.328;7.322;2023-09-07T09:33:04;99423.34;;;29.89;40.71
21594;BME280;10959;51.328;7.322;2023-09-07T09:35:31;99419.13;;;30.14;41.36
21594;BME280;10959;51.328;7.322;2023-09-07T09:38:00;99415.38;;;29.87;38.81
21594;BME280;10959;51.328;7.322;2023-09-07T09:40:31;99407.75;;;29.69;39.36
21594;BME280;10959;51.328;7.322;2023-09-07T09:42:57;99408.97;;;29.87;40.06
21594;BME280;10959;51.328;7.322;2023-09-07T09:45:26;99402.59;;;30.06;37.62
21594;BME280;10959;51.328;7.322;2023-09-07T09:47:54;99410.31;;;30.12;40.16
21594;BME280;10959;51.328;7.322;2023-09-07T09:50:22;99400.19;;;30.42;40.27
21594;BME280;10959;51.328;7.322;2023-09-07T09:52:50;99398.03;;;30.36;38.11
21594;BME280;10959;51.328;7.322;2023-09-07T09:55:18;99399.66;;;30.37;37.33
21594;BME280;10959;51.328;7.322;2023-09-07T09:57:46;99392.97;;;30.41;38.66
21594;BME280;10959;51.328;7.322;2023-09-07T10:00:14;99389.28;;;30.37;36.34
21594;BME280;10959;51.328;7.322;2023-09-07T10:02:55;99389.00;;;30.04;37.42
21594;BME280;10959;51.328;7.322;2023-09-07T10:05:24;99394.59;;;30.04;38.29
21594;BME280;10959;51.328;7.322;2023-09-07T10:07:51;99384.97;;;30.21;39.07
21594;BME280;10959;51.328;7.322;2023-09-07T10:10:18;99382.53;;;30.58;39.06
21594;BME280;10959;51.328;7.322;2023-09-07T10:12:52;99384.81;;;30.75;37.27
21594;BME280;10959;51.328;7.322;2023-09-07T10:15:20;99379.63;;;30.73;36.50
21594;BME280;10959;51.328;7.322;2023-09-07T10:17:47;99377.75;;;30.58;37.06
21594;BME280;10959;51.328;7.322;2023-09-07T10:20:15;99379.25;;;30.52;36.93
21594;BME280;10959;51.328;7.322;2023-09-07T10:22:43;99376.25;;;30.41;36.65
21594;BME280;10959;51.328;7.322;2023-09-07T10:25:20;99386.41;;;30.53;38.35
21594;BME280;10959;51.328;7.322;2023-09-07T10:27:49;99380.59;;;30.84;37.30
21594;BME280;10959;51.328;7.322;2023-09-07T10:30:15;99383.41;;;31.07;37.06
21594;BME280;10959;51.328;7.322;2023-09-07T10:32:45;99384.13;;;31.01;37.38
21594;BME280;10959;51.328;7.322;2023-09-07T10:35:15;99390.75;;;31.19;37.50
21594;BME280;10959;51.328;7.322;2023-09-07T10:37:44;99380.09;;;31.50;39.08
21594;BME280;10959;51.328;7.322;2023-09-07T10:40:11;99369.22;;;31.72;36.20
21594;BME280;10959;51.328;7.322;2023-09-07T10:42:38;99377.47;;;31.91;36.75
21594;BME280;10959;51.328;7.322;2023-09-07T10:45:13;99367.97;;;31.99;37.06
21594;BME280;10959;51.328;7.322;2023-09-07T10:47:42;99370.69;;;32.25;36.98
21594;BME280;10959;51.328;7.322;2023-09-07T10:50:10;99371.28;;;32.41;37.16
21594;BME280;10959;51.328;7.322;2023-09-07T10:52:38;99361.34;;;32.47;35.08
21594;BME280;10959;51.328;7.322;2023-09-07T10:55:05;99358.97;;;32.49;36.21
21594;BME280;10959;51.328;7.322;2023-09-07T10:57:32;99367.88;;;32.58;35.45
21594;BME280;10959;51.328;7.322;2023-09-07T10:59:58;99360.75;;;32.65;35.91
21594;BME280;10959;51.328;7.322;2023-09-07T11:02:26;99360.81;;;32.72;36.30
21594;BME280;10959;51.328;7.322;2023-09-07T11:04:52;99357.69;;;32.80;35.08
21594;BME280;10959;51.328;7.322;2023-09-07T11:07:19;99354.56;;;32.89;35.50
21594;BME280;10959;51.328;7.322;2023-09-07T11:09:46;99352.19;;;32.94;34.22
21594;BME280;10959;51.328;7.322;2023-09-07T11:12:13;99345.81;;;32.94;33.55
21594;BME280;10959;51.328;7.322;2023-09-07T11:14:41;99345.03;;;32.97;35.25
21594;BME280;10959;51.328;7.322;2023-09-07T11:17:07;99343.13;;;33.08;35.42
21594;BME280;10959;51.328;7.322;2023-09-07T11:19:35;99351.22;;;33.20;34.06
21594;BME280;10959;51.328;7.322;2023-09-07T11:22:03;99343.31;;;33.33;35.16
21594;BME280;10959;51.328;7.322;2023-09-07T11:24:30;99340.53;;;33.40;34.85
21594;BME280;10959;51.328;7.322;2023-09-07T11:26:57;99337.00;;;33.50;35.29
21594;BME280;10959;51.328;7.322;2023-09-07T11:29:25;99339.09;;;33.63;35.40
21594;BME280;10959;51.328;7.322;2023-09-07T11:31:51;99336.31;;;33.71;32.75
21594;BME280;10959;51.328;7.322;2023-09-07T11:34:18;99343.16;;;33.73;34.49
21594;BME280;10959;51.328;7.322;2023-09-07T11:36:46;99335.88;;;33.61;33.56
21594;BME280;10959;51.328;7.322;2023-09-07T11:39:14;99349.41;;;33.45;34.36
21594;BME280;10959;51.328;7.322;2023-09-07T11:41:41;99339.78;;;33.46;34.20
21594;BME280;10959;51.328;7.322;2023-09-07T11:44:08;99341.59;;;33.14;34.10
21594;BME280;10959;51.328;7.322;2023-09-07T11:46:35;99336.19;;;32.95;34.68
21594;BME280;10959;51.328;7.322;2023-09-07T11:49:02;99333.75;;;32.90;35.21
21594;BME280;10959;51.328;7.322;2023-09-07T11:51:30;99329.81;;;32.98;35.31
21594;BME280;10959;51.328;7.322;2023-09-07T11:53:57;99326.47;;;32.78;34.67
21594;BME280;10959;51.328;7.322;2023-09-07T11:56:25;99315.22;;;32.34;34.29
21594;BME280;10959;51.328;7.322;2023-09-07T11:58:52;99317.22;;;32.34;34.99
21594;BME280;10959;51.328;7.322;2023-09-07T12:01:18;99318.78;;;32.31;36.76
21594;BME280;10959;51.328;7.322;2023-09-07T12:03:45;99321.50;;;32.57;36.49
21594;BME280;10959;51.328;7.322;2023-09-07T12:06:12;99318.47;;;32.80;34.32
21594;BME280;10959;51.328;7.322;2023-09-07T12:08:41;99323.34;;;32.87;34.38
21594;BME280;10959;51.328;7.322;2023-09-07T12:11:10;99305.81;;;32.97;36.65
21594;BME280;10959;51.328;7.322;2023-09-07T12:13:36;99316.34;;;33.10;34.58
21594;BME280;10959;51.328;7.322;2023-09-07T12:16:03;99315.75;;;32.87;34.67
21594;BME280;10959;51.328;7.322;2023-09-07T12:18:29;99306.44;;;32.76;36.55
21594;BME280;10959;51.328;7.322;2023-09-07T12:20:56;99306.72;;;32.61;35.04
21594;BME280;10959;51.328;7.322;2023-09-07T12:23:22;99306.88;;;32.38;33.59
21594;BME280;10959;51.328;7.322;2023-09-07T12:25:49;99308.28;;;32.18;35.10
21594;BME280;10959;51.328;7.322;2023-09-07T12:28:17;99305.50;;;31.88;34.62
21594;BME280;10959;51.328;7.322;2023-09-07T12:30:44;99308.31;;;31.58;34.70
21594;BME280;10959;51.328;7.322;2023-09-07T12:33:10;99298.75;;;31.59;36.41
21594;BME280;10959;51.328;7.322;2023-09-07T12:35:37;99301.25;;;31.68;35.64
21594;BME280;10959;51.328;7.322;2023-09-07T12:38:03;99289.94;;;31.57;34.82
21594;BME280;10959;51.328;7.322;2023-09-07T12:40:30;99294.84;;;31.64;35.75
21594;BME280;10959;51.328;7.322;2023-09-07T12:42:56;99288.53;;;31.74;36.76
21594;BME280;10959;51.328;7.322;2023-09-07T12:45:25;99288.44;;;31.63;33.27
21594;BME280;10959;51.328;7.322;2023-09-07T12:47:51;99289.94;;;31.57;35.38
21594;BME280;10959;51.328;7.322;2023-09-07T12:50:17;99290.44;;;31.36;34.75
21594;BME280;10959;51.328;7.322;2023-09-07T12:52:44;99288.13;;;31.12;34.49
21594;BME280;10959;51.328;7.322;2023-09-07T12:55:11;99284.94;;;31.14;34.21
21594;BME280;10959;51.328;7.322;2023-09-07T12:57:43;99283.56;;;31.01;33.09
21594;BME280;10959;51.328;7.322;2023-09-07T13:00:10;99278.41;;;30.80;34.25